sensor_id;sensor_type;location;lat;lon;timestamp;pressure;altitude;pressure_sealevel;temperature;humidity
38227;BME280;24026;49.446;8.576;2023-04-29T00:01:56;100180.59;;;16.64;72.25
38227;BME280;24026;49.446;8.576;2023-04-29T00:04:18;100170.16;;;16.62;72.08
38227;BME280;24026;49.446;8.576;2023-04-29T00:06:39;100173.63;;;16.63;72.22
38227;BME280;24026;49.446;8.576;2023-04-29T00:08:59;100167.19;;;16.64;71.96
38227;BME280;24026;49.446;8.576;2023-04-29T00:11:19;100177.09;;;16.63;71.88
38227;BME280;24026;49.446;8.576;2023-04-29T00:13:40;100174.41;;;16.63;72.00
38227;BME280;24026;49.446;8.576;2023-04-29T00:16:00;100175.25;;;16.64;71.90
38227;BME280;24026;49.446;8.576;2023-04-29T00:18:21;100179.00;;;16.63;71.95
38227;BME280;24026;49.446;8.576;2023-04-29T00:20:41;100179.00;;;16.63;71.80
38227;BME280;24026;49.446;8.576;2023-04-29T00:23:02;100176.59;;;16.61;72.02
38227;BME280;24026;49.446;8.576;2023-04-29T00:25:22;100182.75;;;16.62;71.90
38227;BME280;24026;49.446;8.576;2023-04-29T00:27:43;100180.06;;;16.62;71.77
38227;BME280;24026;49.446;8.576;2023-04-29T00:30:03;100175.81;;;16.61;72.00
38227;BME280;24026;49.446;8.576;2023-04-29T00:32:24;100185.44;;;16.62;71.96
38227;BME280;24026;49.446;8.576;2023-04-29T00:34:44;100180.34;;;16.60;72.05
38227;BME280;24026;49.446;8.576;2023-04-29T00:37:05;100184.94;;;16.60;71.77
38227;BME280;24026;49.446;8.576;2023-04-29T00:39:25;100182.25;;;16.60;71.91
38227;BME280;24026;49.446;8.576;2023-04-29T00:41:45;100190.28;;;16.60;72.01
38227;BME280;24026;49.446;8.576;2023-04-29T00:44:06;100188.69;;;16.59;71.80
38227;BME280;24026;49.446;8.576;2023-04-29T00:46:26;100190.28;;;16.60;71.72
38227;BME280;24026;49.446;8.576;2023-04-29T00:48:47;100190.28;;;16.60;71.99
38227;BME280;24026;49.446;8.576;2023-04-29T00:51:08;100186.81;;;16.59;71.82
38227;BME280;24026;49.446;8.576;2023-04-29T00:53:29;100192.19;;;16.59;71.86
38227;BME280;24026;49.446;8.576;2023-04-29T00:55:49;100192.19;;;16.59;71.66
38227;BME280;24026;49.446;8.576;2023-04-29T00:58:10;100192.19;;;16.59;71.92
38227;BME280;24026;49.446;8.576;2023-04-29T01:00:31;100188.69;;;16.59;71.77
38227;BME280;24026;49.446;8.576;2023-04-29T01:02:51;100190.56;;;16.58;71.88
38227;BME280;24026;49.446;8.576;2023-04-29T01:05:13;100185.22;;;16.58;71.83
38227;BME280;24026;49.446;8.576;2023-04-29T01:10:09;100186.31;;;16.57;71.87
38227;BME280;24026;49.446;8.576;2023-04-29T01:15:25;100187.38;;;16.56;71.94
38227;BME280;24026;49.446;8.576;2023-04-29T01:17:50;100186.59;;;16.56;71.95
38227;BME280;24026;49.446;8.576;2023-04-29T01:20:13;100183.91;;;16.56;71.93
38227;BME280;24026;49.446;8.576;2023-04-29T01:22:34;100181.53;;;16.54;71.94
38227;BME280;24026;49.446;8.576;2023-04-29T01:24:54;100187.38;;;16.56;71.80
38227;BME280;24026;49.446;8.576;2023-04-29T01:32:08;100201.09;;;16.55;71.71
38227;BME280;24026;49.446;8.576;2023-04-29T01:34:43;100198.41;;;16.55;71.56
38227;BME280;24026;49.446;8.576;2023-04-29T01:37:17;100200.31;;;16.54;71.84
38227;BME280;24026;49.446;8.576;2023-04-29T01:39:45;100192.03;;;16.51;71.97
38227;BME280;24026;49.446;8.576;2023-04-29T01:42:13;100192.53;;;16.53;71.72
38227;BME280;24026;49.446;8.576;2023-04-29T01:44:34;100198.19;;;16.51;71.84
38227;BME280;24026;49.446;8.576;2023-04-29T01:46:55;100198.97;;;16.52;71.68
38227;BME280;24026;49.446;8.576;2023-04-29T01:49:25;100201.94;;;16.50;71.73
38227;BME280;24026;49.446;8.576;2023-04-29T01:51:45;100194.19;;;16.48;71.90
38227;BME280;24026;49.446;8.576;2023-04-29T01:54:06;100197.13;;;16.47;71.70
38227;BME280;24026;49.446;8.576;2023-04-29T01:56:26;100200.34;;;16.49;71.88
38227;BME280;24026;49.446;8.576;2023-04-29T01:58:46;100203.31;;;16.47;71.76
38227;BME280;24026;49.446;8.576;2023-04-29T02:01:06;100204.91;;;16.48;71.71
38227;BME280;24026;49.446;8.576;2023-04-29T02:03:29;100209.19;;;16.49;71.81
38227;BME280;24026;49.446;8.576;2023-04-29T02:05:49;100209.19;;;16.49;71.74
38227;BME280;24026;49.446;8.576;2023-04-29T02:08:10;100206.00;;;16.47;71.80
38227;BME280;24026;49.446;8.576;2023-04-29T02:10:30;100204.41;;;16.46;71.61
38227;BME280;24026;49.446;8.576;2023-04-29T02:12:50;100211.66;;;16.46;71.78
38227;BME280;24026;49.446;8.576;2023-04-29T02:15:10;100210.56;;;16.47;71.64
38227;BME280;24026;49.446;8.576;2023-04-29T02:17:32;100210.84;;;16.45;71.80
38227;BME280;24026;49.446;8.576;2023-04-29T02:19:52;100211.66;;;16.46;71.73
38227;BME280;24026;49.446;8.576;2023-04-29T02:22:14;100216.19;;;16.45;71.76
38227;BME280;24026;49.446;8.576;2023-04-29T02:24:34;100216.19;;;16.45;71.58
38227;BME280;24026;49.446;8.576;2023-04-29T02:26:54;100222.66;;;16.44;71.69
38227;BME280;24026;49.446;8.576;2023-04-29T02:29:15;100224.25;;;16.45;71.65
38227;BME280;24026;49.446;8.576;2023-04-29T02:31:35;100228.03;;;16.44;71.68
38227;BME280;24026;49.446;8.576;2023-04-29T02:33:55;100230.72;;;16.44;71.68
38227;BME280;24026;49.446;8.576;2023-04-29T02:36:15;100226.94;;;16.45;71.50
38227;BME280;24026;49.446;8.576;2023-04-29T02:38:37;100229.09;;;16.43;71.52
38227;BME280;24026;49.446;8.576;2023-04-29T02:40:57;100234.47;;;16.43;71.74
38227;BME280;24026;49.446;8.576;2023-04-29T02:43:17;100230.19;;;16.42;71.57
38227;BME280;24026;49.446;8.576;2023-04-29T02:45:37;100239.81;;;16.43;71.59
38227;BME280;24026;49.446;8.576;2023-04-29T02:47:58;100240.66;;;16.44;71.62
38227;BME280;24026;49.446;8.576;2023-04-29T02:50:18;100232.06;;;16.42;71.56
38227;BME280;24026;49.446;8.576;2023-04-29T02:52:38;100229.38;;;16.42;71.70
38227;BME280;24026;49.446;8.576;2023-04-29T02:55:00;100228.31;;;16.43;71.54
38227;BME280;24026;49.446;8.576;2023-04-29T02:57:21;100230.19;;;16.42;71.51
38227;BME280;24026;49.446;8.576;2023-04-29T02:59:41;100237.44;;;16.42;71.45
38227;BME280;24026;49.446;8.576;2023-04-29T03:02:01;100236.91;;;16.40;71.63
38227;BME280;24026;49.446;8.576;2023-04-29T03:04:22;100234.53;;;16.38;71.50
38227;BME280;24026;49.446;8.576;2023-04-29T03:06:43;100240.41;;;16.40;71.42
38227;BME280;24026;49.446;8.576;2023-04-29T03:09:03;100238.53;;;16.41;71.39
38227;BME280;24026;49.446;8.576;2023-04-29T03:11:24;100231.84;;;16.38;71.28
38227;BME280;24026;49.446;8.576;2023-04-29T03:13:44;100237.19;;;16.38;71.69
38227;BME280;24026;49.446;8.576;2023-04-29T03:16:05;100231.28;;;16.41;71.37
38227;BME280;24026;49.446;8.576;2023-04-29T03:18:25;100234.25;;;16.40;71.40
38227;BME280;24026;49.446;8.576;2023-04-29T03:20:46;100235.63;;;16.37;71.34
38227;BME280;24026;49.446;8.576;2023-04-29T03:23:06;100231.31;;;16.36;71.53
38227;BME280;24026;49.446;8.576;2023-04-29T03:25:26;100241.25;;;16.36;71.57
38227;BME280;24026;49.446;8.576;2023-04-29T03:27:47;100230.53;;;16.36;71.57
38227;BME280;24026;49.446;8.576;2023-04-29T03:30:07;100230.53;;;16.36;71.54
38227;BME280;24026;49.446;8.576;2023-04-29T03:32:28;100237.75;;;16.35;71.51
38227;BME280;24026;49.446;8.576;2023-04-29T03:34:48;100235.38;;;16.34;71.53
38227;BME280;24026;49.446;8.576;2023-04-29T03:37:08;100235.06;;;16.35;71.29
38227;BME280;24026;49.446;8.576;2023-04-29T03:39:29;100239.94;;;16.33;71.43
38227;BME280;24026;49.446;8.576;2023-04-29T03:41:51;100239.16;;;16.33;71.52
38227;BME280;24026;49.446;8.576;2023-04-29T03:44:11;100243.69;;;16.32;71.53
38227;BME280;24026;49.446;8.576;2023-04-29T03:46:32;100243.69;;;16.32;71.38
38227;BME280;24026;49.446;8.576;2023-04-29T03:48:52;100238.63;;;16.30;71.38
38227;BME280;24026;49.446;8.576;2023-04-29T03:51:15;100250.16;;;16.31;71.46
38227;BME280;24026;49.446;8.576;2023-04-29T03:53:35;100252.03;;;16.30;71.29
38227;BME280;24026;49.446;8.576;2023-04-29T03:55:56;100253.41;;;16.28;71.47
38227;BME280;24026;49.446;8.576;2023-04-29T03:58:16;100251.78;;;16.27;71.53
38227;BME280;24026;49.446;8.576;2023-04-29T04:00:36;100261.44;;;16.28;71.47
38227;BME280;24026;49.446;8.576;2023-04-29T04:02:57;100261.44;;;16.28;71.34
38227;BME280;24026;49.446;8.576;2023-04-29T04:05:17;100271.88;;;16.29;71.26
38227;BME280;24026;49.446;8.576;2023-04-29T04:07:44;100265.72;;;16.29;71.28
38227;BME280;24026;49.446;8.576;2023-04-29T04:10:04;100274.06;;;16.27;71.38
38227;BME280;24026;49.446;8.576;2023-04-29T04:12:24;100267.88;;;16.27;71.13
38227;BME280;24026;49.446;8.576;2023-04-29T04:14:45;100278.59;;;16.27;71.16
38227;BME280;24026;49.446;8.576;2023-04-29T04:17:05;100279.41;;;16.27;71.29
38227;BME280;24026;49.446;8.576;2023-04-29T04:19:25;100276.75;;;16.27;71.23
38227;BME280;24026;49.446;8.576;2023-04-29T04:21:46;100283.97;;;16.27;71.22
38227;BME280;24026;49.446;8.576;2023-04-29T04:24:06;100285.34;;;16.24;71.22
38227;BME280;24026;49.446;8.576;2023-04-29T04:26:26;100286.13;;;16.25;71.13
38227;BME280;24026;49.446;8.576;2023-04-29T04:28:46;100286.91;;;16.25;71.20
38227;BME280;24026;49.446;8.576;2023-04-29T04:31:07;100294.19;;;16.25;71.28
38227;BME280;24026;49.446;8.576;2023-04-29T04:33:27;100291.50;;;16.25;71.06
38227;BME280;24026;49.446;8.576;2023-04-29T04:35:48;100291.78;;;16.23;71.16
38227;BME280;24026;49.446;8.576;2023-04-29T04:38:08;100290.97;;;16.23;71.17
38227;BME280;24026;49.446;8.576;2023-04-29T04:40:30;100299.03;;;16.23;71.17
38227;BME280;24026;49.446;8.576;2023-04-29T04:42:50;100296.34;;;16.23;71.04
38227;BME280;24026;49.446;8.576;2023-04-29T04:45:10;100297.41;;;16.22;71.17
38227;BME280;24026;49.446;8.576;2023-04-29T04:47:31;100301.72;;;16.23;70.98
38227;BME280;24026;49.446;8.576;2023-04-29T04:49:51;100308.13;;;16.22;71.09
38227;BME280;24026;49.446;8.576;2023-04-29T04:52:14;100302.00;;;16.21;71.08
38227;BME280;24026;49.446;8.576;2023-04-29T04:54:35;100304.66;;;16.21;71.06
38227;BME280;24026;49.446;8.576;2023-04-29T04:56:55;100311.63;;;16.22;70.99
38227;BME280;24026;49.446;8.576;2023-04-29T04:59:15;100316.19;;;16.22;71.06
38227;BME280;24026;49.446;8.576;2023-04-29T05:01:35;100311.38;;;16.24;71.03
38227;BME280;24026;49.446;8.576;2023-04-29T05:03:56;100322.38;;;16.22;70.86
38227;BME280;24026;49.446;8.576;2023-04-29T05:06:17;100331.75;;;16.20;71.08
38227;BME280;24026;49.446;8.576;2023-04-29T05:08:37;100335.22;;;16.20;71.09
38227;BME280;24026;49.446;8.576;2023-04-29T05:10:57;100334.44;;;16.20;70.98
38227;BME280;24026;49.446;8.576;2023-04-29T05:13:17;100332.28;;;16.22;70.88
38227;BME280;24026;49.446;8.576;2023-04-29T05:15:38;100337.13;;;16.20;70.81
38227;BME280;24026;49.446;8.576;2023-04-29T05:17:58;100345.69;;;16.22;70.89
38227;BME280;24026;49.446;8.576;2023-04-29T05:20:18;100347.56;;;16.21;70.90
38227;BME280;24026;49.446;8.576;2023-04-29T05:22:39;100359.09;;;16.22;70.81
38227;BME280;24026;49.446;8.576;2023-04-29T05:24:59;100358.00;;;16.23;70.88
38227;BME280;24026;49.446;8.576;2023-04-29T05:27:22;100355.63;;;16.21;70.89
38227;BME280;24026;49.446;8.576;2023-04-29T05:29:42;100358.28;;;16.21;70.79
38227;BME280;24026;49.446;8.576;2023-04-29T05:32:02;100358.28;;;16.21;70.73
38227;BME280;24026;49.446;8.576;2023-04-29T05:34:23;100362.88;;;16.21;70.67
38227;BME280;24026;49.446;8.576;2023-04-29T05:36:43;100363.94;;;16.20;70.64
38227;BME280;24026;49.446;8.576;2023-04-29T05:39:03;100370.09;;;16.20;70.57
38227;BME280;24026;49.446;8.576;2023-04-29T05:41:24;100375.44;;;16.20;70.77
38227;BME280;24026;49.446;8.576;2023-04-29T05:43:44;100374.38;;;16.21;70.55
38227;BME280;24026;49.446;8.576;2023-04-29T05:46:04;100377.84;;;16.22;70.48
38227;BME280;24026;49.446;8.576;2023-04-29T05:48:25;100378.94;;;16.21;70.57
38227;BME280;24026;49.446;8.576;2023-04-29T05:50:45;100382.44;;;16.21;70.57
38227;BME280;24026;49.446;8.576;2023-04-29T05:53:07;100384.03;;;16.22;70.63
38227;BME280;24026;49.446;8.576;2023-04-29T05:55:27;100385.91;;;16.22;70.45
38227;BME280;24026;49.446;8.576;2023-04-29T05:57:47;100390.47;;;16.21;70.57
38227;BME280;24026;49.446;8.576;2023-04-29T06:00:08;100384.59;;;16.19;70.63
38227;BME280;24026;49.446;8.576;2023-04-29T06:02:28;100389.41;;;16.22;70.53
38227;BME280;24026;49.446;8.576;2023-04-29T06:04:48;100392.09;;;16.22;70.48
38227;BME280;24026;49.446;8.576;2023-04-29T06:07:09;100396.63;;;16.22;70.38
38227;BME280;24026;49.446;8.576;2023-04-29T06:09:29;100394.22;;;16.20;70.63
38227;BME280;24026;49.446;8.576;2023-04-29T06:11:49;100399.31;;;16.22;70.44
38227;BME280;24026;49.446;8.576;2023-04-29T06:14:10;100403.09;;;16.21;70.48
38227;BME280;24026;49.446;8.576;2023-04-29T06:16:30;100404.66;;;16.22;70.45
38227;BME280;24026;49.446;8.576;2023-04-29T06:18:51;100413.53;;;16.22;70.42
38227;BME280;24026;49.446;8.576;2023-04-29T06:21:11;100410.84;;;16.22;70.35
38227;BME280;24026;49.446;8.576;2023-04-29T06:23:31;100417.81;;;16.23;70.23
38227;BME280;24026;49.446;8.576;2023-04-29T06:25:52;100417.81;;;16.23;70.20
38227;BME280;24026;49.446;8.576;2023-04-29T06:28:12;100429.34;;;16.24;70.14
38227;BME280;24026;49.446;8.576;2023-04-29T06:30:32;100422.38;;;16.23;70.40
38227;BME280;24026;49.446;8.576;2023-04-29T06:32:52;100428.53;;;16.23;70.11
38227;BME280;24026;49.446;8.576;2023-04-29T06:35:13;100435.00;;;16.22;70.31
38227;BME280;24026;49.446;8.576;2023-04-29T06:37:33;100429.91;;;16.21;70.23
38227;BME280;24026;49.446;8.576;2023-04-29T06:39:54;100443.81;;;16.23;70.27
38227;BME280;24026;49.446;8.576;2023-04-29T06:42:14;100436.56;;;16.23;70.23
38227;BME280;24026;49.446;8.576;2023-04-29T06:44:34;100436.56;;;16.23;70.25
38227;BME280;24026;49.446;8.576;2023-04-29T06:46:55;100439.25;;;16.23;70.04
38227;BME280;24026;49.446;8.576;2023-04-29T06:49:15;100445.44;;;16.24;69.96
38227;BME280;24026;49.446;8.576;2023-04-29T06:51:36;100440.88;;;16.24;70.19
38227;BME280;24026;49.446;8.576;2023-04-29T06:53:56;100449.69;;;16.25;70.13
38227;BME280;24026;49.446;8.576;2023-04-29T06:56:17;100455.06;;;16.25;69.93
38227;BME280;24026;49.446;8.576;2023-04-29T06:58:37;100457.75;;;16.25;70.10
38227;BME280;24026;49.446;8.576;2023-04-29T07:00:58;100453.47;;;16.24;70.20
38227;BME280;24026;49.446;8.576;2023-04-29T07:03:18;100458.53;;;16.25;70.10
38227;BME280;24026;49.446;8.576;2023-04-29T07:05:39;100465.00;;;16.24;70.06
38227;BME280;24026;49.446;8.576;2023-04-29T07:08:00;100465.53;;;16.26;69.99
38227;BME280;24026;49.446;8.576;2023-04-29T07:10:21;100464.72;;;16.26;70.09
38227;BME280;24026;49.446;8.576;2023-04-29T07:12:41;100471.69;;;16.27;69.99
38227;BME280;24026;49.446;8.576;2023-04-29T07:15:01;100476.75;;;16.28;69.86
38227;BME280;24026;49.446;8.576;2023-04-29T07:17:22;100482.13;;;16.28;69.83
38227;BME280;24026;49.446;8.576;2023-04-29T07:19:42;100488.31;;;16.29;69.75
38227;BME280;24026;49.446;8.576;2023-04-29T07:22:02;100484.81;;;16.28;69.81
38227;BME280;24026;49.446;8.576;2023-04-29T07:24:23;100488.59;;;16.27;69.75
38227;BME280;24026;49.446;8.576;2023-04-29T07:26:43;100493.41;;;16.30;69.72
38227;BME280;24026;49.446;8.576;2023-04-29T07:29:04;100497.94;;;16.30;69.79
38227;BME280;24026;49.446;8.576;2023-04-29T07:31:24;100495.53;;;16.28;69.68
38227;BME280;24026;49.446;8.576;2023-04-29T07:33:44;100502.25;;;16.31;69.48
38227;BME280;24026;49.446;8.576;2023-04-29T07:36:06;100504.13;;;16.30;69.56
38227;BME280;24026;49.446;8.576;2023-04-29T07:38:26;100512.16;;;16.30;69.41
38227;BME280;24026;49.446;8.576;2023-04-29T07:40:48;100511.88;;;16.32;69.30
38227;BME280;24026;49.446;8.576;2023-04-29T07:43:08;100511.06;;;16.32;69.37
38227;BME280;24026;49.446;8.576;2023-04-29T07:45:28;100519.13;;;16.32;69.46
38227;BME280;24026;49.446;8.576;2023-04-29T07:47:48;100520.22;;;16.30;69.25
38227;BME280;24026;49.446;8.576;2023-04-29T07:50:09;100527.97;;;16.32;69.40
38227;BME280;24026;49.446;8.576;2023-04-29T07:52:29;100526.38;;;16.31;69.23
38227;BME280;24026;49.446;8.576;2023-04-29T07:54:49;100527.16;;;16.32;69.28
38227;BME280;24026;49.446;8.576;2023-04-29T07:57:10;100529.84;;;16.32;69.25
38227;BME280;24026;49.446;8.576;2023-04-29T07:59:31;100532.53;;;16.32;69.33
38227;BME280;24026;49.446;8.576;2023-04-29T08:01:51;100542.75;;;16.29;69.45
38227;BME280;24026;49.446;8.576;2023-04-29T08:04:12;100547.81;;;16.31;69.35
38227;BME280;24026;49.446;8.576;2023-04-29T08:06:33;100546.22;;;16.30;69.26
38227;BME280;24026;49.446;8.576;2023-04-29T08:08:53;100543.53;;;16.30;69.15
38227;BME280;24026;49.446;8.576;2023-04-29T08:11:15;100553.19;;;16.31;69.23
38227;BME280;24026;49.446;8.576;2023-04-29T08:13:36;100555.88;;;16.31;69.15
38227;BME280;24026;49.446;8.576;2023-04-29T08:15:56;100563.91;;;16.31;69.17
38227;BME280;24026;49.446;8.576;2023-04-29T08:18:16;100565.81;;;16.30;69.07
38227;BME280;24026;49.446;8.576;2023-04-29T08:20:37;100563.91;;;16.31;69.01
38227;BME280;24026;49.446;8.576;2023-04-29T08:22:57;100563.13;;;16.30;68.84
38227;BME280;24026;49.446;8.576;2023-04-29T08:25:18;100569.28;;;16.31;68.94
38227;BME280;24026;49.446;8.576;2023-04-29T08:27:39;100564.72;;;16.32;68.78
38227;BME280;24026;49.446;8.576;2023-04-29T08:29:59;100568.50;;;16.30;68.78
38227;BME280;24026;49.446;8.576;2023-04-29T08:32:19;100571.16;;;16.30;68.65
38227;BME280;24026;49.446;8.576;2023-04-29T08:34:40;100566.59;;;16.31;68.78
38227;BME280;24026;49.446;8.576;2023-04-29T08:37:01;100563.91;;;16.31;68.70
38227;BME280;24026;49.446;8.576;2023-04-29T08:39:21;100580.00;;;16.31;68.81
38227;BME280;24026;49.446;8.576;2023-04-29T08:41:42;100569.28;;;16.31;68.63
38227;BME280;24026;49.446;8.576;2023-04-29T08:44:04;100569.00;;;16.33;68.50
38227;BME280;24026;49.446;8.576;2023-04-29T08:46:25;100575.97;;;16.34;68.33
38227;BME280;24026;49.446;8.576;2023-04-29T08:48:45;100574.38;;;16.33;68.55
38227;BME280;24026;49.446;8.576;2023-04-29T08:51:06;100580.53;;;16.33;68.29
38227;BME280;24026;49.446;8.576;2023-04-29T08:53:26;100582.16;;;16.34;68.19
38227;BME280;24026;49.446;8.576;2023-04-29T08:55:46;100585.63;;;16.35;68.21
38227;BME280;24026;49.446;8.576;2023-04-29T08:58:07;100581.06;;;16.35;68.31
38227;BME280;24026;49.446;8.576;2023-04-29T09:00:29;100585.34;;;16.36;68.03
38227;BME280;24026;49.446;8.576;2023-04-29T09:02:51;100586.97;;;16.37;68.21
38227;BME280;24026;49.446;8.576;2023-04-29T09:05:12;100582.66;;;16.36;68.05
38227;BME280;24026;49.446;8.576;2023-04-29T09:07:33;100591.00;;;16.35;67.98
38227;BME280;24026;49.446;8.576;2023-04-29T09:09:54;100586.97;;;16.37;67.86
38227;BME280;24026;49.446;8.576;2023-04-29T09:12:14;100602.75;;;16.39;67.75
38227;BME280;24026;49.446;8.576;2023-04-29T09:14:35;100597.41;;;16.39;67.71
38227;BME280;24026;49.446;8.576;2023-04-29T09:16:55;100602.47;;;16.40;67.84
38227;BME280;24026;49.446;8.576;2023-04-29T09:21:53;100600.06;;;16.39;67.84
38227;BME280;24026;49.446;8.576;2023-04-29T09:24:13;100594.44;;;16.40;67.68
38227;BME280;24026;49.446;8.576;2023-04-29T09:26:43;100604.91;;;16.42;67.67
38227;BME280;24026;49.446;8.576;2023-04-29T09:29:08;100609.19;;;16.43;67.69
38227;BME280;24026;49.446;8.576;2023-04-29T09:31:30;100616.19;;;16.44;67.45
38227;BME280;24026;49.446;8.576;2023-04-29T09:33:53;100610.00;;;16.43;67.50
38227;BME280;24026;49.446;8.576;2023-04-29T09:36:17;100610.81;;;16.44;67.62
38227;BME280;24026;49.446;8.576;2023-04-29T09:38:54;100599.25;;;16.43;67.46
38227;BME280;24026;49.446;8.576;2023-04-29T09:41:14;100609.72;;;16.45;67.43
38227;BME280;24026;49.446;8.576;2023-04-29T09:43:38;100606.75;;;16.46;67.42
38227;BME280;24026;49.446;8.576;2023-04-29T09:45:59;100604.06;;;16.46;67.16
38227;BME280;24026;49.446;8.576;2023-04-29T09:48:19;100608.91;;;16.49;67.09
38227;BME280;24026;49.446;8.576;2023-04-29T09:50:41;100606.22;;;16.49;66.94
38227;BME280;24026;49.446;8.576;2023-04-29T09:53:01;100607.84;;;16.51;66.94
38227;BME280;24026;49.446;8.576;2023-04-29T09:55:22;100610.22;;;16.52;67.07
38227;BME280;24026;49.446;8.576;2023-04-29T09:57:42;100613.44;;;16.54;66.70
38227;BME280;24026;49.446;8.576;2023-04-29T10:00:03;100621.50;;;16.54;66.84
38227;BME280;24026;49.446;8.576;2023-04-29T10:02:24;100625.47;;;16.57;66.85
38227;BME280;24026;49.446;8.576;2023-04-29T10:04:49;100610.22;;;16.57;66.53
38227;BME280;24026;49.446;8.576;2023-04-29T10:07:15;100615.28;;;16.59;66.71
38227;BME280;24026;49.446;8.576;2023-04-29T10:09:36;100617.97;;;16.59;66.73
38227;BME280;24026;49.446;8.576;2023-04-29T10:11:57;100616.09;;;16.59;66.67
38227;BME280;24026;49.446;8.576;2023-04-29T10:14:22;100620.63;;;16.59;66.26
38227;BME280;24026;49.446;8.576;2023-04-29T10:16:44;100616.88;;;16.60;66.56
38227;BME280;24026;49.446;8.576;2023-04-29T10:19:05;100620.09;;;16.62;66.47
38227;BME280;24026;49.446;8.576;2023-04-29T10:21:27;100619.03;;;16.63;66.17
38227;BME280;24026;49.446;8.576;2023-04-29T10:23:48;100609.09;;;16.63;66.18
38227;BME280;24026;49.446;8.576;2023-04-29T10:26:09;100619.81;;;16.63;66.45
38227;BME280;24026;49.446;8.576;2023-04-29T10:28:31;100612.28;;;16.65;66.08
38227;BME280;24026;49.446;8.576;2023-04-29T10:30:52;100613.91;;;16.66;66.25
38227;BME280;24026;49.446;8.576;2023-04-29T10:33:13;100615.53;;;16.67;66.13
38227;BME280;24026;49.446;8.576;2023-04-29T10:35:35;100616.84;;;16.70;65.95
38227;BME280;24026;49.446;8.576;2023-04-29T10:37:56;100615.25;;;16.69;65.80
38227;BME280;24026;49.446;8.576;2023-04-29T10:40:35;100608.78;;;16.70;65.89
38227;BME280;24026;49.446;8.576;2023-04-29T10:42:58;100604.25;;;16.71;65.77
38227;BME280;24026;49.446;8.576;2023-04-29T10:45:25;100609.31;;;16.72;65.82
38227;BME280;24026;49.446;8.576;2023-04-29T10:50:22;100609.56;;;16.76;65.88
38227;BME280;24026;49.446;8.576;2023-04-29T10:52:51;100607.69;;;16.76;65.56
38227;BME280;24026;49.446;8.576;2023-04-29T10:55:11;100614.38;;;16.79;65.52
38227;BME280;24026;49.446;8.576;2023-04-29T10:57:32;100613.03;;;16.81;65.48
38227;BME280;24026;49.446;8.576;2023-04-29T10:59:52;100613.28;;;16.85;65.50
38227;BME280;24026;49.446;8.576;2023-04-29T11:02:12;100605.47;;;16.89;65.31
38227;BME280;24026;49.446;8.576;2023-04-29T11:05:04;100606.03;;;16.91;64.93
38227;BME280;24026;49.446;8.576;2023-04-29T11:07:36;100607.34;;;16.93;64.79
38227;BME280;24026;49.446;8.576;2023-04-29T11:09:56;100612.94;;;16.97;64.52
38227;BME280;24026;49.446;8.576;2023-04-29T11:12:17;100603.81;;;16.98;64.47
38227;BME280;24026;49.446;8.576;2023-04-29T11:17:00;100607.03;;;17.00;64.35
38227;BME280;24026;49.446;8.576;2023-04-29T11:19:22;100603.78;;;17.03;64.14
38227;BME280;24026;49.446;8.576;2023-04-29T11:21:43;100603.78;;;17.03;64.38
38227;BME280;24026;49.446;8.576;2023-04-29T11:24:04;100600.81;;;17.04;64.45
38227;BME280;24026;49.446;8.576;2023-04-29T11:26:25;100611.28;;;17.06;64.59
38227;BME280;24026;49.446;8.576;2023-04-29T11:28:45;100610.19;;;17.07;64.45
38227;BME280;24026;49.446;8.576;2023-04-29T11:31:07;100600.28;;;17.08;64.20
38227;BME280;24026;49.446;8.576;2023-04-29T11:33:30;100605.38;;;17.09;64.04
38227;BME280;24026;49.446;8.576;2023-04-29T11:35:50;100611.53;;;17.10;64.22
38227;BME280;24026;49.446;8.576;2023-04-29T11:38:11;100613.16;;;17.11;64.22
38227;BME280;24026;49.446;8.576;2023-04-29T11:40:32;100611.53;;;17.10;64.09
38227;BME280;24026;49.446;8.576;2023-04-29T11:42:52;100615.00;;;17.10;64.25
38227;BME280;24026;49.446;8.576;2023-04-29T11:45:12;100616.63;;;17.11;63.99
38227;BME280;24026;49.446;8.576;2023-04-29T11:47:34;100615.53;;;17.12;64.16
38227;BME280;24026;49.446;8.576;2023-04-29T11:52:23;100622.50;;;17.13;63.81
38227;BME280;24026;49.446;8.576;2023-04-29T11:54:44;100626.25;;;17.12;64.05
38227;BME280;24026;49.446;8.576;2023-04-29T11:57:06;100626.25;;;17.12;63.68
38227;BME280;24026;49.446;8.576;2023-04-29T11:59:32;100635.13;;;17.13;63.72
38227;BME280;24026;49.446;8.576;2023-04-29T12:01:52;100623.31;;;17.14;63.67
38227;BME280;24026;49.446;8.576;2023-04-29T12:04:13;100635.66;;;17.15;63.45
38227;BME280;24026;49.446;8.576;2023-04-29T12:06:33;100640.25;;;17.14;63.45
38227;BME280;24026;49.446;8.576;2023-04-29T12:08:53;100634.59;;;17.16;63.47
38227;BME280;24026;49.446;8.576;2023-04-29T12:11:14;100630.81;;;17.17;63.63
38227;BME280;24026;49.446;8.576;2023-04-29T12:13:35;100631.63;;;17.17;63.29
38227;BME280;24026;49.446;8.576;2023-04-29T12:15:56;100628.94;;;17.17;63.38
38227;BME280;24026;49.446;8.576;2023-04-29T12:18:17;100626.78;;;17.19;63.42
38227;BME280;24026;49.446;8.576;2023-04-29T12:20:38;100630.25;;;17.20;63.18
38227;BME280;24026;49.446;8.576;2023-04-29T12:23:12;100628.34;;;17.20;63.30
38227;BME280;24026;49.446;8.576;2023-04-29T12:25:32;100627.81;;;17.23;62.75
38227;BME280;24026;49.446;8.576;2023-04-29T12:27:57;100634.78;;;17.25;62.80
38227;BME280;24026;49.446;8.576;2023-04-29T12:30:18;100634.00;;;17.24;63.27
38227;BME280;24026;49.446;8.576;2023-04-29T12:32:39;100643.34;;;17.27;63.11
38227;BME280;24026;49.446;8.576;2023-04-29T12:34:59;100642.56;;;17.26;63.04
38227;BME280;24026;49.446;8.576;2023-04-29T12:37:20;100635.31;;;17.27;62.92
38227;BME280;24026;49.446;8.576;2023-04-29T12:39:40;100638.78;;;17.27;62.80